首页
METAR-TAF:

METAR-TAF

机场 :

库利亚坎, 墨西哥

纬度: 24-49N, 经度: 107-24W, 海拔: 39米

当前天气观测

该预报发布于30分钟前的23:08 UTC
风速10节,风向西,有时为20节阵风
温度 37°C
湿度 37%
气压 1009 hPa
能見度: 16.1公里
少量云层高于3000英尺, 塔状积云.

METAR: MMCL 152308Z RTD 27010G20KT 10SM FEW030TCU 37/20 A2981 RMK 8/200 DSNT CB 1ST 2ND QUAD

时间: 17:38 (23:38 UTC)

预报

该预报发布于6小时和34分钟前的17:04 UTC
预报有效从15日的 18点(UTC)到 16日的 18点(UTC)
风速12节,风向西转西南
能見度: 10公里
天空无云
从 15日的 2100点(UTC)
风速15节,风向西
能見度: 10公里
散云层高于3000英尺
短暂存在
从 15日的 23点(UTC)到 16日的 03点(UTC)
能見度: 9.7公里
散云层高于2500英尺, 积雨云.
附近有, 雷暴, 雨
从 16日的 0600点(UTC)
风速节,风向
能見度: 10公里
散云层高于10000英尺
多云层高于20000英尺

TAF: MMCL 151704Z 1518/1618 24012KT P6SM SKC FM152100 28015KT P6SM SCT030 TEMPO 1523/1603 6SM VC TSRA SCT025CB FM160600 00000KT P6SM SCT100 BKN200

超过4000个机场的气象观测和天气预报(METAR&TAF报告)。

可查询的气象台以黄色和红色小点在地图上表示。

将鼠标移到小点上方,可查看气象台名称。

然后点击查看天气观测和预报。

如需切换地图:点击带黑十字的绿色按钮放大地图;点击带横线的绿色按钮缩小地图;或者点击绿色箭头查看邻近地区的地图。


METAR-TAF: